Portada
METAR-TAF:

METAR-TAF

Aeroports :

Managua, Nicaragua

latitud: 12-09N, longitud: 086-10W, altitud: 50 m

Observació

L'informe es va fer fa 1 hora i 6 minuts, a les 15:00 UTC
Vent 8 kt del Est
Temperatura 29°C
Humitat 66%
Pressió 1012 hPa
Visibilitat 10 km o més
Escasses núvols a una alçada de 2200 ft

METAR: MNMG 121500Z 08008KT 9999 FEW022 29/22 Q1011 A2988 NOSIG

Hora: 10:06 (16:06 UTC)

Pronòstic

Pronòstic vàlid del 12 a les 10 UTC al 13 a les 00 UTC
Vent 6 kt del Sud-Est
Visibilitat 10 km o més
Escasses núvols a una alçada de 2000 ft
Evolucionant progressivament
l' 12 a les 14 UTC al 12 a les 16 UTC
Núvols disperses a una alçada de 2200 ft

TAF: MNMG 121000 1212/1312 14006KT 9999 FEW020 BECMG 1214/1216 09014K SCT022

Observacions i pronòstics meteorològics de més de 4000 aeroports (METAR i TAF).

Les estacions disponibles són els punts grocs i vermells al mapa.

Posi el ratolí al punt desitjat per veure el nom de l'estació.

Feu clic per veure les observacions i els pronòstics meteorològics.

Per canviar el mapa: feu clic els botons verds amb una creu de color negre per apropar; al botó verd amb un guió per allunyar la imatge; o en les fletxes verdes per a mapes adjacents.


METAR-TAF: